Newport Municipal Airport
KONP : now visible

Airfield :











YOU CAN JOIN US ON...

 
LOGIN :

Register | Disclaimer

   EN    FR    IT 

 









Legend :    VFR   Marginal VFR   IFR   Intensive IFR   Very Intensive IFR
Visi :
Ceiling :
>= 8 km
>= 3000ft
5 to 8 km
1000 to 3000 ft
1500m to 5 km
500 to 1000 ft
800 to 1500m
200 to 500 ft
< 800m
< 200 ft
Symbols :   Thunderstorms  Fog  Heavy snow  Heavy precipitations  Wind > 20 kt







- Airport Elevation : 160 ft


KONP - Newport Municipal

CURRENT METAR :
  • 210915Z AUTO 11005KT 10SM -RA OVC025 10/08 A2966 RMK AO2 P0001

EXPIRED METARs :
  • 210855Z AUTO 12007KT 10SM DZ OVC025 10/08 A2967 RMK AO2 P0002
  • 210835Z AUTO 12006KT 4SM DZ SCT014 OVC027 10/08 A2968 RMK AO2 P0002
  • 210815Z AUTO 14005KT 5SM RA SCT014 BKN029 OVC041 10/08 A2968 RMK AO2 P0001
  • 210755Z AUTO 14005KT 10SM SCT029 BKN038 OVC060 10/08 A2968 RMK AO2
  • 210735Z AUTO 15004KT 10SM OVC027 10/08 A2968 RMK AO2
  • 210715Z AUTO 13005KT 10SM BKN027 BKN031 OVC050 10/08 A2968 RMK AO2
  • 210655Z AUTO 13005KT 10SM SCT029 BKN040 OVC060 10/08 A2969 RMK AO2
  • 210635Z AUTO 14004KT 10SM SCT029 BKN041 OVC085 10/08 A2969 RMK AO2

TAF KONP
Valid from the 21 at 09:00 until the 22 at 06:00 UTC


210918Z 2109/2206 12007KT P6SM SCT029 BKN040 OVC060
TEMPO 2109/2110 RA OVC025
FM211500 09009KT P6SM -SHRA SCT015 BKN025 OVC040
KZSE FIR / North America



MET'MAP, your aeronautical weather chart ! - Copyright ORBIFLY December 2007 - Disclaimer

ORBIFLY MET'MAP TEAM :

Programming & Development : Alexandra Zaïnal
Concept & Development : Baudouin d'Aumeries
Co-Development & Prog : Marc-Olivier Méhu
Technical & hardware support : Manuel Goepfert

Contact : metmap@orbifly.com




SOURCES & CREDITS :

   NOAA       Earth
Advisory